1981 HAZEN (1981317N14153)


On this page: IBTrACS data - Map and Plots - Positions - Intensities - Original source data

Summary

Start Nov 12
End Nov 23
Basin WP
LMI 100 kt
Sources jtwc_wp
tokyo
cma
hko
td9636
In WMO? Yes
Previous storm 1981 TD1110 (WP)
Previous in basin 1981 TD1110 (WP)
Concurrent storms 1982 ARMELLE (SI)
1981 HAZEN (WP)
1981 SUBTROP (NA)
1981 IRMA (WP)
1981 MISSING (NI)
1981 JEFF (WP)
Next in basin 1981 IRMA (WP)
Next storm 1981 SUBTROP (NA)

top of page IBTrACS Data: File Access

top of page HURSAT Data: File Access

Image of storm

top of page Plots:

Map of storm track will not appear if FTP is down
Time series of cyclone Maximum Sustained Wind will not appear if FTP is down
Time series of cyclone Minimum Central Pressure will not appear if FTP is down

top of page Track Data:Position

jtwc_wp tokyo cma hko td9636
Date Lat Lon Lat Lon Lat Lon Lat Lon Lat Lon
1981-11-12 12:00:00 13.8 153.3 13.8 153.3
1981-11-12 18:00:00 14.2 152.7 14.1 152.6
1981-11-13 00:00:00 14.4 151.9 14.5 151.5 14.6 151.8 15.2 152.0 14.4 151.9
1981-11-13 06:00:00 14.7 151.2 14.7 150.7 14.8 150.8 15.3 150.9 14.6 151.3
1981-11-13 12:00:00 14.8 150.6 15.0 150.0 15.1 149.9 15.4 150.0 14.8 150.6
1981-11-13 18:00:00 15.2 149.8 15.3 149.3 15.4 149.2 15.5 149.2 15.1 149.8
1981-11-14 00:00:00 15.4 149.0 15.6 148.6 15.6 148.6 15.6 148.7 15.4 149.0
1981-11-14 06:00:00 15.6 148.4 15.6 148.3 15.6 148.1 15.6 148.1 15.6 148.6
1981-11-14 12:00:00 15.7 148.2 15.7 147.9 15.6 147.5 15.6 147.7 15.7 148.2
1981-11-14 18:00:00 15.7 147.3 15.6 147.4 15.5 147.0 15.5 147.2 15.6 147.3
1981-11-15 00:00:00 15.4 146.2 15.2 146.4 15.4 146.4 15.4 146.6 15.4 146.2
1981-11-15 06:00:00 15.2 145.3 14.8 145.2 14.7 145.2 14.9 145.4 15.0 145.3
1981-11-15 12:00:00 14.5 144.3 14.2 143.8 14.0 144.0 14.2 143.9 14.5 144.3
1981-11-15 18:00:00 13.9 142.8 13.7 142.3 13.7 142.3 13.7 142.5 13.9 142.8
1981-11-16 00:00:00 13.4 141.0 13.5 140.7 13.5 140.6 13.4 140.9 13.4 141.0
1981-11-16 06:00:00 13.4 139.3 13.4 139.1 13.4 138.9 13.3 139.0 13.2 139.3
1981-11-16 12:00:00 13.4 137.6 13.6 137.5 13.7 137.4 13.3 137.6 13.4 137.6
1981-11-16 18:00:00 13.8 136.2 14.0 136.0 14.0 136.2 13.8 135.9 13.8 136.2
1981-11-17 00:00:00 14.3 134.8 14.3 134.6 14.4 134.7 14.4 134.6 14.3 134.8
1981-11-17 06:00:00 14.5 133.4 14.5 133.2 14.6 133.3 14.5 133.2 14.5 133.4
1981-11-17 12:00:00 14.6 132.0 14.7 131.9 14.8 131.8 14.7 131.8 14.6 132.0
1981-11-17 18:00:00 14.8 130.6 14.9 130.7 15.1 130.4 15.0 130.5 14.8 130.9
1981-11-18 00:00:00 14.9 129.8 14.9 129.6 15.0 129.4 15.1 129.4 14.9 129.8
1981-11-18 06:00:00 14.7 128.7 14.7 128.6 14.7 128.4 14.9 128.4 14.6 128.7
1981-11-18 12:00:00 14.2 127.6 14.6 127.5 14.4 127.6 14.5 127.6 14.2 127.6
jtwc_wp tokyo cma hko td9636
1981-11-18 18:00:00 13.9 126.7 14.1 126.9 14.1 126.8 14.1 126.8 13.9 126.8
1981-11-19 00:00:00 13.7 125.9 13.8 126.1 13.9 126.1 13.9 125.9 13.7 125.9
1981-11-19 06:00:00 13.5 124.9 13.6 125.1 13.7 125.1 13.6 124.8 13.6 124.9
1981-11-19 12:00:00 13.5 123.7 13.5 124.1 13.5 124.1 13.5 123.9 13.5 123.7
1981-11-19 18:00:00 13.4 122.7 13.4 122.5 13.4 123.1 13.4 123.0 13.4 122.6
1981-11-20 00:00:00 13.4 121.3 13.5 121.0 13.3 122.0 13.5 121.6 13.4 121.3
1981-11-20 06:00:00 13.6 119.8 13.5 119.6 13.3 120.7 13.7 120.0 13.6 119.8
1981-11-20 12:00:00 14.0 118.3 14.0 118.2 13.8 118.9 13.9 118.8 14.0 118.3
1981-11-20 18:00:00 14.3 116.9 14.6 117.1 14.2 117.3 14.2 117.5 14.3 116.8
1981-11-21 00:00:00 14.8 115.4 15.0 115.5 14.4 115.9 14.6 116.1 14.8 115.4
1981-11-21 06:00:00 15.6 114.0 15.6 114.0 15.4 114.4 15.3 114.5 15.5 113.9
1981-11-21 12:00:00 16.3 112.5 16.2 112.5 16.0 113.2 16.0 112.8 16.3 112.5
1981-11-21 18:00:00 16.9 111.2 16.8 110.9 16.4 112.0 16.5 111.7 16.9 111.2
1981-11-22 00:00:00 17.6 110.1 18.0 110.0 17.2 110.7 17.5 110.4 17.6 110.1
1981-11-22 06:00:00 18.5 109.3 19.0 109.5 18.3 109.8 18.4 109.7 18.5 109.3
1981-11-22 12:00:00 19.6 108.8 19.5 109.0 19.4 109.0 19.4 109.1 19.6 108.8
1981-11-22 18:00:00 20.7 108.8 20.0 109.0 20.4 109.5 20.5 109.0 20.7 108.8
1981-11-23 00:00:00 21.7 109.0 21.0 109.0 20.6 109.3 20.8 109.1 21.7 109.0
1981-11-23 06:00:00 22.6 109.8 20.8 109.0

top of pageTrack Data:Intensity

jtwc_wp tokyo cma hko td9636
Date Wind Pres Wind Pres Wind Pres Wind Pres Wind Pres
1981-11-12 12:00:00 15. 15.
1981-11-12 18:00:00 15. 15.
1981-11-13 00:00:00 15. 1008. 19. 1008. 25. 1008. 15.
1981-11-13 06:00:00 20. 1008. 23. 1008. 25. 1008. 15.
1981-11-13 12:00:00 25. 1008. 23. 1007. 25. 1008. 25.
1981-11-13 18:00:00 30. 1006. 29. 1006. 25. 1006. 25.
1981-11-14 00:00:00 30. 1004. 29. 1004. 25. 1006. 30.
1981-11-14 06:00:00 30. 1000. 29. 1000. 25. 1000. 30.
1981-11-14 12:00:00 35. 998. 39. 997. 30. 995. 35.
1981-11-14 18:00:00 35. 45. 992. 39. 992. 35. 991. 35.
1981-11-15 00:00:00 45. 45. 990. 39. 986. 40. 988. 45.
1981-11-15 06:00:00 55. 55. 980. 49. 981. 50. 983. 45.
1981-11-15 12:00:00 60. 60. 975. 58. 973. 60. 975. 60.
1981-11-15 18:00:00 65. 65. 960. 68. 962. 70. 965. 60.
1981-11-16 00:00:00 80. 70. 955. 87. 955. 85. 955. 80.
1981-11-16 06:00:00 95. 70. 955. 87. 955. 85. 955. 80.
1981-11-16 12:00:00 100. 65. 960. 87. 959. 85. 960. 100.
1981-11-16 18:00:00 95. 60. 970. 78. 972. 70. 970. 100.
1981-11-17 00:00:00 90. 50. 980. 78. 980. 65. 983. 90.
1981-11-17 06:00:00 85. 55. 985. 78. 984. 60. 985. 90.
1981-11-17 12:00:00 80. 55. 985. 68. 985. 60. 985. 80.
1981-11-17 18:00:00 75. 55. 985. 58. 985. 55. 985. 80.
1981-11-18 00:00:00 65. 55. 985. 58. 985. 55. 985. 65.
1981-11-18 06:00:00 55. 50. 985. 49. 986. 50. 985. 65.
1981-11-18 12:00:00 55. 45. 990. 49. 986. 50. 989. 55.
jtwc_wp tokyo cma hko td9636
1981-11-18 18:00:00 55. 50. 980. 49. 985. 55. 981. 55.
1981-11-19 00:00:00 65. 65. 975. 58. 976. 60. 975. 65.
1981-11-19 06:00:00 70. 70. 975. 58. 975. 60. 975. 65.
1981-11-19 12:00:00 60. 60. 980. 58. 980. 60. 980. 60.
1981-11-19 18:00:00 55. 55. 985. 58. 983. 60. 980. 60.
1981-11-20 00:00:00 55. 55. 985. 58. 985. 60. 980. 55.
1981-11-20 06:00:00 55. 55. 985. 58. 985. 60. 980. 55.
1981-11-20 12:00:00 50. 55. 985. 49. 986. 60. 980. 50.
1981-11-20 18:00:00 45. 45. 990. 49. 986. 55. 980. 50.
1981-11-21 00:00:00 45. 40. 994. 49. 987. 55. 985. 45.
1981-11-21 06:00:00 45. 35. 1000. 49. 990. 50. 990. 45.
1981-11-21 12:00:00 40. 35. 1000. 39. 995. 45. 990. 40.
1981-11-21 18:00:00 35. 35. 1000. 39. 998. 45. 990. 40.
1981-11-22 00:00:00 30. 1004. 39. 998. 45. 995. 30.
1981-11-22 06:00:00 25. 1006. 39. 998. 40. 1000. 30.
1981-11-22 12:00:00 25. 1008. 29. 1005. 30. 1002. 25.
1981-11-22 18:00:00 30. 1008. 23. 1006. 30. 1002. 25.
1981-11-23 00:00:00 25. 1010. 23. 1006. 25. 1005. 25.
1981-11-23 06:00:00 20. 19. 1006.

top of page Links to source data

Source Source file Format
jtwc_wp bwp251981.txt ATCF
tokyo bst_all.txt:Line=30552:HAZEN:8125 JMA text table
cma CH1981BST.txt:Storm=29:Hazen CMA text table
hko tc-besttrack-data.txt:Line=14693:HAZEN HKO Text table
td9636 cons_worldwide_trop_cyclone_18710101-19891231-003:Line=27865 TD 9636